createdAt,value
2022-08-09T00:00:04.911Z,20.72
2022-08-09T00:02:34.222Z,20.71
2022-08-09T00:06:12.180Z,20.61
2022-08-09T00:07:48.425Z,20.42
2022-08-09T00:10:18.223Z,20.50
2022-08-09T00:12:52.632Z,20.32
2022-08-09T00:15:26.745Z,20.40
2022-08-09T00:18:11.366Z,20.35
2022-08-09T00:20:49.839Z,20.31
2022-08-09T00:23:54.724Z,20.33
2022-08-09T00:26:07.110Z,20.42
2022-08-09T00:28:35.108Z,20.42
2022-08-09T00:31:09.353Z,20.41
2022-08-09T00:33:51.455Z,20.25
2022-08-09T00:36:19.671Z,20.39
2022-08-09T00:38:46.520Z,20.25
2022-08-09T00:44:10.359Z,20.30
2022-08-09T00:44:26.636Z,20.26
2022-08-09T00:47:05.504Z,20.13
2022-08-09T00:49:36.476Z,20.14
2022-08-09T00:52:05.943Z,19.93
2022-08-09T00:54:36.456Z,20.10
2022-08-09T00:57:10.263Z,19.99
2022-08-09T00:59:46.594Z,19.95
2022-08-09T01:02:23.360Z,19.82
2022-08-09T01:04:52.972Z,19.69
2022-08-09T01:07:38.075Z,19.53
2022-08-09T01:10:36.413Z,19.50
2022-08-09T01:13:18.112Z,19.46
2022-08-09T01:15:52.561Z,19.41
2022-08-09T01:18:29.782Z,19.20
2022-08-09T01:21:12.429Z,19.36
2022-08-09T01:24:02.382Z,19.35
2022-08-09T01:26:59.968Z,19.31
2022-08-09T01:29:55.114Z,19.27
2022-08-09T01:32:31.397Z,19.21
2022-08-09T01:35:28.856Z,19.21
2022-08-09T01:38:07.907Z,19.16
2022-08-09T01:40:52.406Z,19.14
2022-08-09T01:43:30.829Z,19.26
2022-08-09T01:45:58.950Z,19.28
2022-08-09T01:48:29.848Z,19.17
2022-08-09T01:50:59.723Z,19.10
2022-08-09T01:53:29.353Z,19.20
2022-08-09T01:56:11.309Z,19.07
2022-08-09T01:58:40.278Z,19.10
2022-08-09T02:01:08.963Z,19.16
2022-08-09T02:03:37.043Z,19.05
2022-08-09T02:06:07.346Z,19.15
2022-08-09T02:08:57.683Z,19.16
2022-08-09T02:11:42.126Z,19.13
2022-08-09T02:14:15.811Z,19.04
2022-08-09T02:16:59.548Z,19.06
2022-08-09T02:19:43.336Z,18.86
2022-08-09T02:22:51.447Z,18.85
2022-08-09T02:25:24.073Z,18.73
2022-08-09T02:28:03.882Z,18.81
2022-08-09T02:30:47.779Z,18.84
2022-08-09T02:33:23.100Z,18.64
2022-08-09T02:36:10.520Z,18.76
2022-08-09T02:38:47.903Z,18.58
2022-08-09T02:41:32.524Z,18.47
2022-08-09T02:44:10.310Z,18.42
2022-08-09T02:46:54.135Z,18.45
2022-08-09T02:49:38.424Z,18.35
2022-08-09T02:52:09.947Z,18.37
2022-08-09T02:54:54.453Z,18.33
2022-08-09T02:57:23.901Z,18.45
2022-08-09T03:00:25.408Z,18.37
2022-08-09T03:02:59.894Z,18.24
2022-08-09T03:05:28.707Z,18.18
2022-08-09T03:07:55.849Z,18.19
2022-08-09T03:10:25.574Z,18.07
2022-08-09T03:12:54.741Z,18.12
2022-08-09T03:15:23.344Z,18.09
2022-08-09T03:17:58.855Z,18.07
2022-08-09T03:20:29.536Z,17.75
2022-08-09T03:23:00.358Z,17.88
2022-08-09T03:25:58.725Z,17.80
2022-08-09T03:28:30.959Z,17.56
2022-08-09T03:30:59.345Z,17.65
2022-08-09T03:33:54.588Z,17.45
2022-08-09T03:36:18.741Z,17.33
2022-08-09T03:38:47.607Z,17.36
2022-08-09T03:41:18.397Z,17.37
2022-08-09T03:44:03.265Z,17.41
2022-08-09T03:46:34.323Z,17.39
2022-08-09T03:49:07.966Z,17.27
2022-08-09T03:51:55.184Z,17.21
2022-08-09T03:54:29.191Z,17.20
2022-08-09T03:56:58.650Z,17.10
2022-08-09T03:59:27.691Z,16.95
2022-08-09T04:02:10.590Z,16.97
2022-08-09T04:04:38.846Z,16.94
2022-08-09T04:07:06.089Z,17.03
2022-08-09T04:09:42.020Z,16.99
2022-08-09T04:12:30.966Z,16.99
2022-08-09T04:15:01.668Z,16.93
2022-08-09T04:17:29.822Z,16.84
2022-08-09T04:19:56.844Z,16.96
2022-08-09T04:22:24.307Z,16.96
2022-08-09T04:24:57.335Z,17.03
2022-08-09T04:27:27.417Z,16.97
2022-08-09T04:29:56.265Z,16.97
2022-08-09T04:32:34.070Z,16.93
2022-08-09T04:35:04.870Z,16.71
2022-08-09T04:37:45.669Z,16.86
2022-08-09T04:40:19.128Z,16.52
2022-08-09T04:42:56.723Z,16.47
2022-08-09T04:45:25.762Z,16.31
2022-08-09T04:48:02.120Z,16.36
2022-08-09T04:50:31.897Z,16.26
2022-08-09T04:53:01.802Z,16.44
2022-08-09T04:55:38.322Z,16.40
2022-08-09T04:58:09.423Z,16.41
2022-08-09T05:00:36.932Z,16.40
2022-08-09T05:03:40.255Z,16.30
2022-08-09T05:06:07.030Z,16.35
2022-08-09T05:08:34.981Z,16.36
2022-08-09T05:11:02.566Z,16.39
2022-08-09T05:13:29.274Z,16.45
2022-08-09T05:15:59.911Z,16.37
2022-08-09T05:18:50.536Z,16.43
2022-08-09T05:21:24.345Z,16.56
2022-08-09T05:24:00.403Z,16.47
2022-08-09T05:26:45.671Z,16.60
2022-08-09T05:29:21.595Z,16.57
2022-08-09T05:31:57.691Z,16.75
2022-08-09T05:34:30.641Z,16.88
2022-08-09T05:37:01.635Z,16.87
2022-08-09T05:39:36.485Z,16.80
2022-08-09T05:42:21.208Z,16.90
2022-08-09T05:44:53.135Z,16.94
2022-08-09T05:47:30.162Z,17.09
2022-08-09T05:50:30.097Z,17.10
2022-08-09T05:52:44.509Z,17.39
2022-08-09T05:55:24.074Z,17.41
2022-08-09T05:57:56.759Z,17.54
2022-08-09T06:00:32.881Z,17.60
2022-08-09T06:03:02.703Z,17.70
2022-08-09T06:05:57.299Z,17.79
2022-08-09T06:08:24.254Z,18.10
2022-08-09T06:10:53.423Z,18.03
2022-08-09T06:13:21.304Z,18.05
2022-08-09T06:15:51.504Z,18.14
2022-08-09T06:18:23.883Z,18.04
2022-08-09T06:20:54.853Z,18.13
2022-08-09T06:23:57.135Z,18.13
2022-08-09T06:26:20.398Z,18.15
2022-08-09T06:29:00.004Z,18.28
2022-08-09T06:31:31.419Z,18.40
2022-08-09T06:34:06.784Z,18.46
2022-08-09T06:36:36.961Z,18.50
2022-08-09T06:39:11.782Z,18.93
2022-08-09T06:41:39.718Z,18.87
2022-08-09T06:44:29.094Z,19.08
2022-08-09T06:46:58.393Z,19.17
2022-08-09T06:49:44.687Z,19.44
2022-08-09T06:52:15.755Z,19.66
2022-08-09T06:54:42.692Z,20.01
2022-08-09T06:57:12.000Z,20.24
2022-08-09T07:00:51.875Z,20.51
2022-08-09T07:02:29.439Z,20.72
2022-08-09T07:04:59.741Z,21.11
2022-08-09T07:08:00.029Z,21.46
2022-08-09T07:10:29.562Z,21.84
2022-08-09T07:12:58.401Z,22.06
2022-08-09T07:16:36.226Z,22.29
2022-08-09T07:18:15.137Z,22.61
2022-08-09T07:20:43.528Z,22.95
2022-08-09T07:23:19.170Z,23.28
2022-08-09T07:25:52.232Z,23.51
2022-08-09T07:28:29.116Z,23.83
2022-08-09T07:30:55.913Z,24.08
2022-08-09T07:33:25.032Z,24.31
2022-08-09T07:35:54.119Z,24.80
2022-08-09T07:38:23.499Z,24.93
2022-08-09T07:41:10.893Z,25.07
2022-08-09T07:43:50.148Z,24.86
2022-08-09T07:46:22.973Z,25.15
2022-08-09T07:48:59.504Z,25.32
2022-08-09T07:52:05.684Z,25.64
2022-08-09T07:54:15.707Z,25.94
2022-08-09T07:56:57.052Z,26.13
2022-08-09T07:59:45.911Z,26.29
2022-08-09T08:02:19.530Z,25.89
2022-08-09T08:04:48.565Z,25.89
2022-08-09T08:08:43.536Z,25.98
2022-08-09T08:10:08.516Z,26.33
2022-08-09T08:12:43.184Z,26.84
2022-08-09T08:15:14.195Z,27.28
2022-08-09T08:17:55.224Z,27.49
2022-08-09T08:20:29.216Z,27.69
2022-08-09T08:23:03.658Z,27.86
2022-08-09T08:25:44.356Z,28.04
2022-08-09T08:28:14.986Z,28.15
2022-08-09T08:30:47.482Z,28.50
2022-08-09T08:33:23.648Z,28.79
2022-08-09T08:35:58.239Z,27.53
2022-08-09T08:38:28.370Z,27.93
2022-08-09T08:40:56.151Z,28.77
2022-08-09T08:43:26.525Z,29.22
2022-08-09T08:46:10.144Z,29.80
2022-08-09T08:48:51.614Z,30.11
2022-08-09T08:51:18.809Z,30.22
2022-08-09T08:54:04.062Z,30.45
2022-08-09T08:56:36.035Z,30.80
2022-08-09T08:59:19.734Z,31.21
2022-08-09T09:01:53.423Z,31.45
2022-08-09T09:04:41.255Z,31.55
2022-08-09T09:07:15.468Z,31.83
2022-08-09T09:10:01.877Z,32.31
2022-08-09T09:12:34.206Z,32.27
2022-08-09T09:15:03.474Z,30.14
2022-08-09T09:17:48.669Z,28.61
2022-08-09T09:20:20.585Z,29.29
2022-08-09T09:22:53.414Z,30.76
2022-08-09T09:26:03.922Z,31.37
2022-08-09T09:29:02.334Z,32.28
2022-08-09T09:31:17.588Z,32.34
2022-08-09T09:34:18.203Z,32.98
2022-08-09T09:36:52.955Z,33.66
2022-08-09T09:39:54.635Z,34.32
2022-08-09T09:42:32.380Z,35.02
2022-08-09T09:45:01.282Z,35.44
2022-08-09T09:47:30.444Z,35.81
2022-08-09T09:50:14.279Z,36.06
2022-08-09T09:52:58.022Z,36.29
2022-08-09T09:55:32.175Z,36.38
2022-08-09T09:58:17.376Z,36.68
2022-08-09T10:00:58.836Z,36.96
2022-08-09T10:03:57.545Z,37.15
2022-08-09T10:06:32.192Z,37.41
2022-08-09T10:09:21.638Z,37.58
2022-08-09T10:12:07.567Z,37.96
2022-08-09T10:14:39.539Z,37.86
2022-08-09T10:17:24.352Z,36.83
2022-08-09T10:20:00.038Z,36.76
2022-08-09T10:22:35.354Z,35.64
2022-08-09T10:25:11.849Z,36.43
2022-08-09T10:27:55.897Z,37.21
2022-08-09T10:33:29.766Z,38.05
2022-08-09T10:36:11.465Z,38.42
2022-08-09T10:38:57.132Z,37.74
2022-08-09T10:41:29.174Z,38.01
2022-08-09T10:44:01.043Z,38.57
2022-08-09T10:46:34.270Z,39.07
2022-08-09T10:49:20.395Z,39.50
2022-08-09T10:52:00.237Z,39.66
2022-08-09T10:54:29.845Z,36.39
2022-08-09T10:57:10.792Z,37.06
2022-08-09T10:59:55.567Z,36.45
2022-08-09T11:03:46.751Z,37.66
2022-08-09T11:05:30.123Z,38.68
2022-08-09T11:08:17.517Z,39.44
2022-08-09T11:11:00.893Z,38.33
2022-08-09T11:13:51.477Z,37.68
2022-08-09T11:16:39.175Z,37.35
2022-08-09T11:19:10.313Z,37.66
2022-08-09T11:21:57.221Z,37.92
2022-08-09T11:25:09.153Z,38.48
2022-08-09T11:28:03.824Z,39.23
2022-08-09T11:30:34.587Z,38.14
2022-08-09T11:33:19.645Z,37.92
2022-08-09T11:35:54.581Z,38.34
2022-08-09T11:38:32.258Z,37.64
2022-08-09T11:41:38.130Z,37.95
2022-08-09T11:44:07.700Z,38.58
2022-08-09T11:46:59.619Z,37.58
2022-08-09T11:50:56.530Z,38.52
2022-08-09T11:53:16.484Z,37.84
2022-08-09T11:55:52.351Z,38.10
2022-08-09T11:58:30.153Z,38.12
2022-08-09T12:01:08.566Z,38.94
2022-08-09T12:03:57.370Z,39.90
2022-08-09T12:06:32.003Z,40.90
2022-08-09T12:09:01.188Z,41.44
2022-08-09T12:11:33.309Z,41.88
2022-08-09T12:14:12.422Z,42.25
2022-08-09T12:16:56.470Z,42.63
2022-08-09T12:19:30.697Z,43.01
2022-08-09T12:22:02.983Z,43.38
2022-08-09T12:24:30.882Z,43.52
2022-08-09T12:29:11.663Z,43.68
2022-08-09T12:30:01.458Z,43.81
2022-08-09T12:32:43.273Z,44.05
2022-08-09T12:35:13.403Z,43.98
2022-08-09T12:37:50.316Z,44.03
2022-08-09T12:40:20.519Z,43.88
2022-08-09T12:42:50.546Z,43.69
2022-08-09T12:45:35.018Z,43.61
2022-08-09T12:48:20.035Z,42.35
2022-08-09T12:50:57.890Z,42.79
2022-08-09T12:53:41.045Z,42.80
2022-08-09T12:56:37.027Z,41.79
2022-08-09T12:59:11.771Z,42.32
2022-08-09T13:01:42.771Z,42.52
2022-08-09T13:04:36.826Z,42.32
2022-08-09T13:07:50.721Z,42.20
2022-08-09T13:10:15.834Z,42.87
2022-08-09T13:13:08.726Z,42.10
2022-08-09T13:15:36.113Z,40.68
2022-08-09T13:18:05.727Z,40.21
2022-08-09T13:20:37.439Z,40.64
2022-08-09T13:24:16.029Z,41.01
2022-08-09T13:26:04.344Z,41.76
2022-08-09T13:28:35.857Z,42.41
2022-08-09T13:32:12.486Z,42.67
2022-08-09T13:33:55.167Z,42.45
2022-08-09T13:36:38.980Z,42.67
2022-08-09T13:41:19.352Z,43.12
2022-08-09T13:42:12.408Z,43.40
2022-08-09T13:44:45.675Z,43.29
2022-08-09T13:47:33.930Z,42.73
2022-08-09T13:50:18.166Z,42.80
2022-08-09T13:52:56.767Z,42.73
2022-08-09T13:55:29.035Z,42.45
2022-08-09T13:57:58.440Z,41.26
2022-08-09T14:00:28.871Z,41.30
2022-08-09T14:03:03.635Z,41.94
2022-08-09T14:05:56.630Z,42.35
2022-08-09T14:08:28.374Z,42.32
2022-08-09T14:10:56.228Z,42.41
2022-08-09T14:14:15.097Z,42.19
2022-08-09T14:16:14.934Z,41.78
2022-08-09T14:18:45.932Z,41.72
2022-08-09T14:21:22.239Z,42.29
2022-08-09T14:23:54.591Z,42.61
2022-08-09T14:26:25.210Z,42.93
2022-08-09T14:28:52.090Z,43.05
2022-08-09T14:31:23.682Z,42.84
2022-08-09T14:34:08.295Z,42.59
2022-08-09T14:36:39.849Z,42.76
2022-08-09T14:39:10.247Z,42.81
2022-08-09T14:41:41.695Z,42.51
2022-08-09T14:44:09.649Z,42.06
2022-08-09T14:47:01.474Z,41.70
2022-08-09T14:49:26.936Z,41.11
2022-08-09T14:51:58.854Z,40.58
2022-08-09T14:54:28.123Z,40.86
2022-08-09T14:56:58.615Z,40.21
2022-08-09T14:59:26.940Z,39.56
2022-08-09T15:01:54.159Z,39.27
2022-08-09T15:04:23.237Z,39.59
2022-08-09T15:06:51.390Z,39.76
2022-08-09T15:10:03.796Z,40.01
2022-08-09T15:12:08.267Z,40.06
2022-08-09T15:14:38.839Z,40.38
2022-08-09T15:17:09.611Z,39.54
2022-08-09T15:19:37.015Z,39.47
2022-08-09T15:22:21.993Z,39.57
2022-08-09T15:24:52.657Z,39.79
2022-08-09T15:27:19.344Z,39.40
2022-08-09T15:30:55.391Z,39.02
2022-08-09T15:32:33.764Z,39.18
2022-08-09T15:35:01.324Z,38.76
2022-08-09T15:37:36.988Z,38.55
2022-08-09T15:40:11.654Z,38.05
2022-08-09T15:42:39.635Z,37.67
2022-08-09T15:45:13.865Z,37.64
2022-08-09T15:47:51.492Z,37.46
2022-08-09T15:50:19.728Z,37.49
2022-08-09T15:52:55.028Z,37.78
2022-08-09T15:55:58.978Z,38.14
2022-08-09T15:58:27.180Z,38.36
2022-08-09T16:00:54.121Z,38.43
2022-08-09T16:03:29.652Z,38.27
2022-08-09T16:06:07.053Z,38.10
2022-08-09T16:08:56.059Z,37.86
2022-08-09T16:11:22.674Z,37.74
2022-08-09T16:14:06.016Z,37.82
2022-08-09T16:16:39.073Z,37.61
2022-08-09T16:19:10.277Z,37.55
2022-08-09T16:21:41.058Z,37.36
2022-08-09T16:24:20.097Z,37.14
2022-08-09T16:26:56.705Z,36.79
2022-08-09T16:29:37.411Z,36.61
2022-08-09T16:32:33.452Z,36.36
2022-08-09T16:34:58.408Z,36.17
2022-08-09T16:37:55.202Z,36.11
2022-08-09T16:40:14.051Z,36.11
2022-08-09T16:42:47.944Z,36.30
2022-08-09T16:45:19.580Z,36.31
2022-08-09T16:48:40.829Z,36.29
2022-08-09T16:50:35.314Z,35.85
2022-08-09T16:53:05.694Z,35.23
2022-08-09T16:55:58.570Z,34.60
2022-08-09T16:58:20.967Z,34.29
2022-08-09T17:00:48.555Z,34.12
2022-08-09T17:03:21.643Z,34.13
2022-08-09T17:06:07.646Z,34.23
2022-08-09T17:08:45.641Z,34.23
2022-08-09T17:11:39.949Z,34.24
2022-08-09T17:14:26.080Z,34.35
2022-08-09T17:17:02.179Z,34.18
2022-08-09T17:19:47.686Z,34.20
2022-08-09T17:22:30.928Z,34.22
2022-08-09T17:25:11.560Z,34.01
2022-08-09T17:27:49.212Z,33.86
2022-08-09T17:30:21.676Z,33.55
2022-08-09T17:32:52.795Z,33.39
2022-08-09T17:35:19.399Z,33.10
2022-08-09T17:38:11.820Z,32.98
2022-08-09T17:40:35.172Z,32.71
2022-08-09T17:43:33.053Z,32.49
2022-08-09T17:46:03.801Z,32.20
2022-08-09T17:48:38.361Z,32.07
2022-08-09T17:51:17.396Z,32.09
2022-08-09T17:53:52.432Z,31.90
2022-08-09T17:56:27.717Z,31.72
2022-08-09T17:59:01.117Z,31.68
2022-08-09T18:02:03.814Z,31.57
2022-08-09T18:04:17.885Z,31.48
2022-08-09T18:06:54.526Z,31.39
2022-08-09T18:09:22.826Z,31.47
2022-08-09T18:12:15.304Z,31.21
2022-08-09T18:14:49.720Z,31.04
2022-08-09T18:17:19.025Z,31.09
2022-08-09T18:20:59.139Z,31.05
2022-08-09T18:22:41.167Z,30.90
2022-08-09T18:25:17.972Z,30.78
2022-08-09T18:27:59.762Z,30.69
2022-08-09T18:30:34.597Z,30.61
2022-08-09T18:33:12.956Z,30.52
2022-08-09T18:35:58.321Z,30.52
2022-08-09T18:38:26.455Z,30.44
2022-08-09T18:40:55.289Z,30.37
2022-08-09T18:43:23.459Z,30.20
2022-08-09T18:46:46.028Z,30.05
2022-08-09T18:48:36.820Z,29.92
2022-08-09T18:51:03.391Z,29.83
2022-08-09T18:53:56.555Z,29.70
2022-08-09T18:56:17.015Z,29.56
2022-08-09T18:58:46.505Z,29.40
2022-08-09T19:01:18.250Z,29.23
2022-08-09T19:04:00.971Z,29.15
2022-08-09T19:06:32.889Z,28.98
2022-08-09T19:09:03.418Z,28.86
2022-08-09T19:11:37.495Z,28.73
2022-08-09T19:14:05.349Z,28.65
2022-08-09T19:16:36.228Z,28.50
2022-08-09T19:19:19.292Z,28.32
2022-08-09T19:22:06.492Z,28.15
2022-08-09T19:25:07.466Z,27.96
2022-08-09T19:27:22.241Z,27.90
2022-08-09T19:30:21.001Z,27.79
2022-08-09T19:32:36.752Z,27.62
2022-08-09T19:35:05.041Z,27.50
2022-08-09T19:37:40.948Z,27.39
2022-08-09T19:40:19.616Z,27.26
2022-08-09T19:42:48.991Z,27.09
2022-08-09T19:45:16.647Z,26.91
2022-08-09T19:47:46.518Z,26.86
2022-08-09T19:50:51.534Z,26.74
2022-08-09T19:53:04.399Z,26.58
2022-08-09T19:56:02.225Z,26.49
2022-08-09T19:58:18.083Z,26.45
2022-08-09T20:00:57.264Z,26.35
2022-08-09T20:04:17.216Z,26.24
2022-08-09T20:06:23.490Z,26.21
2022-08-09T20:08:56.912Z,26.11
2022-08-09T20:11:25.775Z,26.07
2022-08-09T20:13:54.350Z,25.94
2022-08-09T20:16:34.928Z,25.99
2022-08-09T20:19:42.555Z,25.87
2022-08-09T20:21:56.195Z,25.65
2022-08-09T20:24:29.609Z,25.53
2022-08-09T20:27:05.790Z,25.53
2022-08-09T20:29:39.042Z,25.44
2022-08-09T20:32:30.641Z,25.31
2022-08-09T20:34:54.701Z,25.05
2022-08-09T20:37:22.601Z,25.03
2022-08-09T20:40:18.016Z,24.93
2022-08-09T20:42:37.781Z,24.82
2022-08-09T20:46:00.402Z,24.76
2022-08-09T20:47:52.725Z,24.74
2022-08-09T20:50:47.843Z,24.65
2022-08-09T20:53:34.924Z,24.51
2022-08-09T20:56:02.106Z,24.56
2022-08-09T20:58:32.852Z,24.52
2022-08-09T21:01:33.675Z,24.45
2022-08-09T21:05:49.013Z,24.30
2022-08-09T21:06:42.490Z,24.35
2022-08-09T21:09:11.654Z,24.14
2022-08-09T21:14:27.156Z,24.08
2022-08-09T21:16:57.970Z,24.06
2022-08-09T21:20:17.098Z,24.09
2022-08-09T21:22:35.776Z,24.07
2022-08-09T21:25:18.669Z,23.96
2022-08-09T21:27:52.242Z,24.03
2022-08-09T21:30:22.283Z,23.95
2022-08-09T21:32:50.406Z,23.93
2022-08-09T21:35:17.620Z,23.88
2022-08-09T21:37:59.387Z,23.84
2022-08-09T21:40:30.638Z,23.74
2022-08-09T21:43:03.511Z,23.60
2022-08-09T21:45:39.189Z,23.47
2022-08-09T21:48:07.014Z,23.49
2022-08-09T21:50:36.186Z,23.33
2022-08-09T21:53:23.928Z,23.23
2022-08-09T21:55:54.325Z,23.18
2022-08-09T21:58:21.087Z,23.15
2022-08-09T22:00:55.891Z,23.09
2022-08-09T22:03:25.603Z,23.04
2022-08-09T22:05:54.188Z,23.03
2022-08-09T22:08:23.021Z,22.93
2022-08-09T22:11:49.137Z,22.87
2022-08-09T22:13:39.405Z,22.84
2022-08-09T22:16:10.623Z,22.71
2022-08-09T22:18:52.164Z,22.70
2022-08-09T22:21:22.407Z,22.60
2022-08-09T22:24:01.727Z,22.50
2022-08-09T22:26:35.341Z,22.40
2022-08-09T22:29:09.169Z,22.29
2022-08-09T22:31:38.518Z,22.37
2022-08-09T22:34:16.839Z,22.17
2022-08-09T22:36:47.105Z,22.19
2022-08-09T22:39:20.797Z,22.12
2022-08-09T22:42:03.396Z,22.09
2022-08-09T22:44:32.827Z,22.14
2022-08-09T22:48:14.693Z,22.18
2022-08-09T22:49:47.675Z,22.29
2022-08-09T22:52:21.725Z,22.41
2022-08-09T22:54:51.038Z,22.41
2022-08-09T22:57:18.011Z,22.49
2022-08-09T22:59:56.329Z,22.61
2022-08-09T23:02:25.154Z,22.67
2022-08-09T23:04:53.817Z,22.68
2022-08-09T23:08:22.916Z,22.70
2022-08-09T23:10:31.874Z,22.66
2022-08-09T23:12:58.850Z,22.64
2022-08-09T23:15:26.072Z,22.71
2022-08-09T23:17:52.677Z,22.67
2022-08-09T23:20:19.353Z,22.72
2022-08-09T23:22:45.954Z,22.70
2022-08-09T23:25:12.649Z,22.72
2022-08-09T23:28:09.498Z,22.61
2022-08-09T23:30:25.803Z,22.68
2022-08-09T23:32:55.439Z,22.54
2022-08-09T23:35:22.744Z,22.60
2022-08-09T23:37:49.284Z,22.48
2022-08-09T23:40:17.097Z,22.48
2022-08-09T23:42:43.718Z,22.22
2022-08-09T23:45:11.169Z,22.14
2022-08-09T23:47:57.717Z,22.02
2022-08-09T23:50:24.334Z,21.96
2022-08-09T23:52:51.054Z,21.77
2022-08-09T23:55:17.816Z,21.78
2022-08-09T23:58:01.147Z,21.70
